Bon Aqua, Tennessee
Current Conditions -  °F | °C
As of 11:53 AM on Thursday 18 Dec 2014 (Local Time) from KBNA Reporting Station
Haze Haze  
Wind Chill: 31°   Ceiling: 1000
Heat Index: 36°   Visibility: 6mi
Dew Point: 33°   Wind: 6mph
Humidity: 89%   Direction: 350°N
Pressure: 30.24"   Gusts: NA
Location:  35.95°N, 87.33°W
Report Text: KBNA 181753Z 35005KT 6SM BR BKN010 OVC045 02/01 A3024 RMK AO2 SLP245 60000 T00220006 10028 20006 58005
Loading
Personal Weather Stations






























Interactive Weather Map New forecast layout! Learn more

10-Day Weather Forecast

Advertisements
Track Severe Weather on mobile